createdAt,value
2022-08-21T00:01:58.516Z,26.97
2022-08-21T00:04:30.224Z,26.94
2022-08-21T00:06:58.580Z,26.92
2022-08-21T00:09:26.617Z,26.97
2022-08-21T00:11:57.072Z,26.98
2022-08-21T00:14:28.123Z,26.97
2022-08-21T00:17:00.239Z,26.97
2022-08-21T00:19:30.294Z,27.01
2022-08-21T00:21:58.860Z,26.96
2022-08-21T00:24:27.099Z,27.04
2022-08-21T00:26:54.958Z,27.01
2022-08-21T00:29:23.999Z,27.00
2022-08-21T00:31:55.910Z,26.96
2022-08-21T00:34:24.186Z,26.93
2022-08-21T00:36:52.149Z,26.92
2022-08-21T00:39:20.190Z,26.94
2022-08-21T00:41:49.183Z,26.92
2022-08-21T00:44:17.827Z,26.87
2022-08-21T00:46:46.351Z,26.93
2022-08-21T00:49:15.449Z,26.89
2022-08-21T00:51:55.442Z,26.86
2022-08-21T00:54:26.550Z,26.89
2022-08-21T00:56:59.659Z,26.92
2022-08-21T00:59:28.575Z,26.92
2022-08-21T01:01:57.631Z,26.96
2022-08-21T01:04:25.668Z,26.95
2022-08-21T01:06:54.750Z,26.97
2022-08-21T01:09:22.749Z,26.97
2022-08-21T01:11:52.759Z,27.02
2022-08-21T01:14:21.670Z,26.97
2022-08-21T01:16:50.904Z,26.94
2022-08-21T01:19:19.944Z,26.93
2022-08-21T01:21:47.997Z,26.91
2022-08-21T01:24:17.042Z,26.91
2022-08-21T01:26:45.964Z,26.92
2022-08-21T01:29:33.146Z,26.94
2022-08-21T01:32:03.236Z,26.93
2022-08-21T01:34:32.133Z,26.90
2022-08-21T01:37:00.320Z,26.88
2022-08-21T01:39:28.330Z,26.88
2022-08-21T01:41:56.398Z,26.88
2022-08-21T01:44:51.446Z,26.96
2022-08-21T01:47:25.341Z,26.88
2022-08-21T01:49:54.553Z,26.91
2022-08-21T01:52:22.590Z,26.91
2022-08-21T01:54:55.065Z,26.97
2022-08-21T01:57:26.110Z,26.93
2022-08-21T01:59:54.754Z,26.92
2022-08-21T02:02:22.812Z,26.93
2022-08-21T02:04:51.848Z,26.91
2022-08-21T02:07:20.890Z,26.92
2022-08-21T02:09:48.956Z,26.90
2022-08-21T02:12:24.664Z,26.91
2022-08-21T02:14:52.942Z,26.88
2022-08-21T02:17:21.859Z,26.90
2022-08-21T02:19:49.348Z,26.90
2022-08-21T02:22:17.201Z,26.83
2022-08-21T02:24:54.049Z,26.82
2022-08-21T02:27:26.702Z,26.88
2022-08-21T02:29:57.347Z,26.89
2022-08-21T02:32:25.390Z,26.94
2022-08-21T02:34:54.552Z,26.95
2022-08-21T02:37:24.347Z,26.91
2022-08-21T02:39:52.612Z,26.93
2022-08-21T02:42:21.577Z,26.93
2022-08-21T02:44:49.653Z,26.93
2022-08-21T02:47:18.294Z,26.91
2022-08-21T02:49:46.278Z,26.92
2022-08-21T02:52:16.703Z,26.88
2022-08-21T02:54:44.835Z,26.89
2022-08-21T02:57:12.905Z,26.93
2022-08-21T02:59:40.951Z,26.86
2022-08-21T03:02:12.062Z,26.90
2022-08-21T03:04:43.422Z,26.87
2022-08-21T03:07:18.683Z,26.90
2022-08-21T03:09:55.887Z,26.82
2022-08-21T03:12:29.969Z,26.80
2022-08-21T03:15:00.250Z,26.83
2022-08-21T03:17:29.684Z,26.87
2022-08-21T03:19:58.321Z,26.83
2022-08-21T03:22:27.236Z,26.84
2022-08-21T03:24:56.411Z,26.90
2022-08-21T03:27:23.795Z,26.84
2022-08-21T03:29:52.512Z,26.82
2022-08-21T03:32:22.775Z,26.81
2022-08-21T03:34:51.147Z,26.82
2022-08-21T03:37:19.665Z,26.81
2022-08-21T03:39:47.749Z,26.82
2022-08-21T03:42:15.750Z,26.81
2022-08-21T03:44:44.166Z,26.86
2022-08-21T03:47:12.610Z,26.80
2022-08-21T03:49:40.154Z,26.84
2022-08-21T03:52:08.066Z,26.81
2022-08-21T03:54:36.019Z,26.78
2022-08-21T03:57:04.064Z,26.81
2022-08-21T03:59:32.100Z,26.80
2022-08-21T04:02:02.225Z,26.85
2022-08-21T04:04:32.211Z,26.86
2022-08-21T04:07:00.305Z,26.84
2022-08-21T04:09:29.309Z,26.81
2022-08-21T04:11:57.353Z,26.89
2022-08-21T04:14:27.406Z,26.86
2022-08-21T04:16:56.294Z,26.88
2022-08-21T04:19:25.498Z,26.83
2022-08-21T04:21:53.554Z,26.81
2022-08-21T04:24:21.601Z,26.82
2022-08-21T04:26:51.501Z,26.83
2022-08-21T04:29:21.683Z,26.80
2022-08-21T04:31:50.753Z,26.79
2022-08-21T04:34:18.777Z,26.86
2022-08-21T04:36:47.837Z,26.84
2022-08-21T04:39:15.875Z,26.80
2022-08-21T04:41:43.920Z,26.79
2022-08-21T04:44:12.638Z,26.79
2022-08-21T04:46:42.155Z,26.87
2022-08-21T04:49:13.074Z,26.81
2022-08-21T04:51:41.747Z,26.83
2022-08-21T04:54:13.991Z,26.85
2022-08-21T04:56:52.215Z,26.86
2022-08-21T04:59:24.972Z,26.87
2022-08-21T05:01:52.668Z,26.89
2022-08-21T05:04:22.210Z,26.89
2022-08-21T05:06:50.404Z,26.87
2022-08-21T05:09:20.360Z,26.87
2022-08-21T05:11:49.519Z,26.89
2022-08-21T05:14:18.559Z,26.88
2022-08-21T05:16:46.607Z,26.93
2022-08-21T05:19:16.665Z,26.91
2022-08-21T05:21:46.726Z,26.92
2022-08-21T05:24:15.748Z,26.92
2022-08-21T05:26:46.669Z,26.85
2022-08-21T05:29:19.138Z,26.85
2022-08-21T05:31:47.903Z,26.89
2022-08-21T05:34:17.109Z,26.91
2022-08-21T05:36:47.019Z,26.93
2022-08-21T05:39:15.061Z,26.95
2022-08-21T05:41:43.089Z,26.89
2022-08-21T05:44:11.414Z,26.95
2022-08-21T05:46:40.230Z,26.92
2022-08-21T05:49:08.258Z,26.89
2022-08-21T05:51:38.273Z,26.90
2022-08-21T05:54:06.377Z,26.92
2022-08-21T05:56:35.402Z,26.92
2022-08-21T05:59:03.468Z,26.94
2022-08-21T06:01:38.597Z,26.92
2022-08-21T06:04:07.068Z,26.91
2022-08-21T06:06:35.599Z,26.92
2022-08-21T06:09:04.660Z,26.94
2022-08-21T06:11:34.702Z,26.87
2022-08-21T06:14:02.487Z,26.95
2022-08-21T06:16:31.818Z,26.95
2022-08-21T06:19:02.924Z,26.96
2022-08-21T06:21:31.887Z,26.93
2022-08-21T06:24:00.958Z,26.95
2022-08-21T06:26:30.002Z,26.96
2022-08-21T06:28:58.055Z,26.94
2022-08-21T06:31:27.122Z,26.94
2022-08-21T06:33:55.146Z,26.96
2022-08-21T06:36:23.372Z,26.99
2022-08-21T06:38:51.872Z,26.96
2022-08-21T06:41:44.387Z,26.99
2022-08-21T06:44:13.360Z,26.95
2022-08-21T06:46:41.413Z,26.97
2022-08-21T06:49:15.626Z,26.91
2022-08-21T06:51:53.349Z,26.95
2022-08-21T06:54:21.291Z,26.90
2022-08-21T06:56:50.830Z,26.87
2022-08-21T06:59:20.362Z,26.89
2022-08-21T07:01:48.857Z,26.93
2022-08-21T07:04:18.975Z,26.92
2022-08-21T07:06:48.147Z,26.97
2022-08-21T07:09:18.692Z,26.95
2022-08-21T07:11:50.176Z,27.00
2022-08-21T07:14:20.111Z,26.93
2022-08-21T07:16:50.017Z,26.91
2022-08-21T07:19:18.056Z,26.90
2022-08-21T07:21:49.388Z,26.91
2022-08-21T07:24:18.674Z,26.89
2022-08-21T07:26:47.204Z,26.86
2022-08-21T07:29:15.273Z,26.89
2022-08-21T07:31:45.316Z,26.86
2022-08-21T07:34:13.370Z,26.87
2022-08-21T07:36:42.426Z,26.91
2022-08-21T07:39:10.460Z,26.88
2022-08-21T07:41:40.527Z,26.85
2022-08-21T07:44:09.587Z,26.85
2022-08-21T07:46:43.647Z,26.87
2022-08-21T07:49:12.262Z,26.90
2022-08-21T07:51:41.718Z,26.83
2022-08-21T07:54:11.332Z,26.80
2022-08-21T07:56:46.800Z,26.83
2022-08-21T07:59:15.869Z,26.81
2022-08-21T08:01:43.971Z,26.80
2022-08-21T08:04:14.829Z,26.79
2022-08-21T08:06:43.741Z,26.78
2022-08-21T08:09:12.097Z,26.78
2022-08-21T08:11:49.101Z,26.78
2022-08-21T08:14:19.162Z,26.76
2022-08-21T08:17:26.432Z,26.82
2022-08-21T08:20:05.476Z,26.75
2022-08-21T08:22:43.314Z,26.77
2022-08-21T08:26:07.382Z,26.81
2022-08-21T08:29:34.763Z,26.82
2022-08-21T08:32:08.388Z,26.76
2022-08-21T08:37:45.968Z,26.49
2022-08-21T08:43:22.565Z,26.34
2022-08-21T08:49:22.843Z,26.39
2022-08-21T08:53:02.820Z,26.36
2022-08-21T08:56:21.521Z,26.34
2022-08-21T09:01:39.202Z,26.26
2022-08-21T09:04:31.935Z,26.22
2022-08-21T09:07:43.250Z,26.24
2022-08-21T09:11:14.241Z,26.28
2022-08-21T09:14:08.582Z,26.23
2022-08-21T09:17:21.469Z,26.28
2022-08-21T09:20:48.001Z,26.24
2022-08-21T09:23:55.279Z,26.21
2022-08-21T09:26:44.104Z,26.30
2022-08-21T16:51:33.784Z,24.43
2022-08-21T16:54:27.541Z,24.42
2022-08-21T17:00:11.733Z,24.43
2022-08-21T17:03:00.180Z,24.46
2022-08-21T17:11:56.611Z,24.51
2022-08-21T17:15:04.681Z,24.53
2022-08-21T17:18:02.714Z,24.57
2022-08-21T17:20:53.895Z,24.45
2022-08-21T17:23:43.283Z,24.44
2022-08-21T17:26:41.154Z,24.46
2022-08-21T17:29:33.112Z,24.42
2022-08-21T17:32:05.699Z,24.44
2022-08-21T17:34:32.942Z,24.45
2022-08-21T17:37:00.727Z,24.52
2022-08-21T17:39:27.915Z,24.51
2022-08-21T17:41:57.907Z,24.51
2022-08-21T17:44:25.579Z,24.53
2022-08-21T17:46:52.790Z,24.56
2022-08-21T17:49:23.882Z,24.58
2022-08-21T17:51:54.133Z,24.62
2022-08-21T17:54:21.354Z,24.58
2022-08-21T17:56:48.633Z,24.64
2022-08-21T17:59:27.159Z,24.60
2022-08-21T18:02:09.877Z,24.63
2022-08-21T18:05:07.919Z,24.61
2022-08-21T18:07:35.247Z,24.66
2022-08-21T18:10:07.511Z,24.66
2022-08-21T18:12:41.169Z,24.71
2022-08-21T18:15:10.750Z,24.69
2022-08-21T18:17:38.096Z,24.69
2022-08-21T18:20:07.262Z,24.75
2022-08-21T18:22:34.483Z,24.70
2022-08-21T18:25:01.666Z,24.71
2022-08-21T18:27:29.829Z,24.71
2022-08-21T18:30:00.167Z,24.71
2022-08-21T18:32:30.719Z,24.70
2022-08-21T18:34:58.763Z,24.71
2022-08-21T18:37:25.856Z,24.69
2022-08-21T18:39:53.171Z,24.74
2022-08-21T18:42:28.710Z,24.74
2022-08-21T18:44:58.080Z,24.72
2022-08-21T18:47:29.160Z,24.69
2022-08-21T18:49:56.804Z,24.73
2022-08-21T18:55:13.479Z,24.75
2022-08-21T18:57:46.560Z,24.76
2022-08-21T19:00:19.932Z,24.75
2022-08-21T19:02:47.485Z,24.75
2022-08-21T19:05:16.107Z,24.75
2022-08-21T19:07:45.373Z,24.74
2022-08-21T19:10:28.293Z,24.75
2022-08-21T19:12:58.155Z,24.75
2022-08-21T19:15:28.819Z,24.76
2022-08-21T19:18:03.807Z,24.72
2022-08-21T19:20:35.064Z,24.74
2022-08-21T19:23:03.758Z,24.75
2022-08-21T19:25:33.831Z,24.72
2022-08-21T19:31:16.375Z,24.72
2022-08-21T19:33:46.241Z,24.75
2022-08-21T19:36:18.365Z,24.80
2022-08-21T19:38:48.202Z,24.79
2022-08-21T19:41:16.450Z,24.81
2022-08-21T19:43:45.516Z,24.81
2022-08-21T19:46:13.194Z,24.80
2022-08-21T19:51:29.509Z,24.80
2022-08-21T19:53:57.413Z,24.81
2022-08-21T19:56:27.819Z,24.79
2022-08-21T19:58:56.395Z,24.79
2022-08-21T20:01:26.011Z,24.81
2022-08-21T20:03:54.682Z,24.81
2022-08-21T20:06:23.938Z,24.81
2022-08-21T20:08:58.082Z,24.78
2022-08-21T20:11:31.753Z,24.80
2022-08-21T20:14:00.638Z,24.79
2022-08-21T20:16:28.373Z,24.85
2022-08-21T20:18:55.606Z,24.85
2022-08-21T20:21:22.877Z,24.85
2022-08-21T20:23:50.171Z,24.85
2022-08-21T20:26:18.980Z,24.88
2022-08-21T20:28:46.502Z,24.83
2022-08-21T20:31:20.000Z,24.91
2022-08-21T20:33:49.476Z,24.94
2022-08-21T20:36:17.586Z,24.92
2022-08-21T20:38:44.807Z,24.98
2022-08-21T20:41:21.178Z,24.99
2022-08-21T20:43:48.856Z,25.01
2022-08-21T20:46:22.371Z,25.04
2022-08-21T20:48:50.041Z,25.02
2022-08-21T20:51:28.302Z,25.01
2022-08-21T20:54:37.059Z,25.03
2022-08-21T20:57:04.203Z,25.04
2022-08-21T20:59:34.040Z,25.04
2022-08-21T21:02:16.417Z,25.03
2022-08-21T21:04:55.985Z,24.97
2022-08-21T21:07:35.094Z,24.96
2022-08-21T21:10:04.699Z,25.01
2022-08-21T21:12:34.803Z,25.04
2022-08-21T21:15:14.653Z,25.00
2022-08-21T21:17:47.905Z,25.02
2022-08-21T21:20:19.983Z,25.02
2022-08-21T21:22:53.869Z,25.05
2022-08-21T21:25:40.449Z,25.03
2022-08-21T21:28:12.859Z,25.07
2022-08-21T21:30:46.489Z,25.08
2022-08-21T21:33:17.086Z,25.12
2022-08-21T21:35:49.126Z,25.06
2022-08-21T21:38:24.001Z,25.11
2022-08-21T21:41:01.537Z,25.06
2022-08-21T21:44:06.037Z,25.07
2022-08-21T21:46:46.157Z,25.05
2022-08-21T21:49:27.362Z,25.05
2022-08-21T21:52:31.965Z,25.00
2022-08-21T22:02:01.128Z,24.97
2022-08-21T22:05:00.333Z,24.99
2022-08-21T22:07:55.003Z,25.00
2022-08-21T22:10:34.030Z,24.99
2022-08-21T22:13:26.147Z,24.99
2022-08-21T22:15:54.837Z,24.87
2022-08-21T22:18:26.136Z,24.90
2022-08-21T22:21:10.725Z,24.86
2022-08-21T22:23:49.521Z,24.92
2022-08-21T22:26:32.203Z,24.87
2022-08-21T22:29:04.954Z,24.88
2022-08-21T22:31:38.541Z,24.83
2022-08-21T22:34:19.778Z,24.93
2022-08-21T22:36:54.643Z,24.81
2022-08-21T22:39:36.054Z,24.87
2022-08-21T22:42:23.432Z,24.84
2022-08-21T22:45:04.780Z,24.87
2022-08-21T22:48:05.865Z,24.91
2022-08-21T22:50:48.171Z,24.87
2022-08-21T22:53:26.544Z,24.87
2022-08-21T22:55:55.696Z,24.82
2022-08-21T22:58:35.375Z,24.82
2022-08-21T23:01:33.715Z,24.78
2022-08-21T23:04:16.481Z,24.81
2022-08-21T23:06:56.063Z,24.78
2022-08-21T23:09:36.639Z,24.85
2022-08-21T23:12:24.402Z,24.76
2022-08-21T23:15:03.289Z,24.82
2022-08-21T23:17:44.513Z,24.76
2022-08-21T23:20:56.374Z,24.82
2022-08-21T23:23:35.391Z,24.75
2022-08-21T23:30:00.370Z,24.75
2022-08-21T23:32:40.779Z,24.77
2022-08-21T23:35:15.792Z,24.78
2022-08-21T23:37:54.192Z,24.76
2022-08-21T23:43:38.970Z,24.79
2022-08-21T23:46:33.612Z,24.80
2022-08-21T23:49:25.540Z,24.80
2022-08-21T23:52:14.676Z,24.79
2022-08-21T23:55:20.848Z,24.70
2022-08-21T23:58:06.061Z,24.76
